Taylors Island, Maryland
Current Conditions -  °F | °C
As of 3:52 AM on Friday 19 Dec 2014 (Local Time) from KNHK Reporting Station
Overcast Overcast  
Wind Chill: -3°   Ceiling: 11000
Heat Index:   Visibility: 10mi
Dew Point: -5°   Wind: 14mph
Humidity: 59%   Direction: 320°NW
Pressure: 30.1"   Gusts: 21mph
Location:  38.47°N, 76.3°W
Report Text: KNHK 190852Z AUTO 32012G18KT 10SM FEW095 OVC110 02/M05 A3010 RMK AO2 SLP192 T00221050 58001
Loading
Personal Weather Stations






























Interactive Weather Map New forecast layout! Learn more

10-Day Weather Forecast

Advertisements
Track Severe Weather on mobile